Time;durP1;ratioP1;P1;durP2;ratioP2;P2;SDS_P1;SDS_P2;PMS_P1;PMS_P2;Temp;Humidity;BMP_temperature;BMP_pressure;BME280_temperature;BME280_humidity;BME280_pressure;Samples;Min_cycle;Max_cycle;Signal;HPM_P1;HPM_P2
2023/04/28 00:02:00;;;;;;;;;;;;;;;17.72;53.82;101287.92;2297000;76;51544;-74
2023/04/28 00:05:01;;;;;;;;;;;;;;;17.71;53.83;101285.75;2264330;77;52726;-74
2023/04/28 00:08:03;;;;;;;;;;;;;;;17.71;53.86;101295.13;2298055;76;51300;-74
2023/04/28 00:11:06;;;;;;;;;;;;;;;17.71;53.88;101299.14;2265041;77;51516;-74
2023/04/28 00:14:08;;;;;;;;;;;;;;;17.72;53.87;101289.27;2300703;76;50836;-73
2023/04/28 00:17:09;;;;;;;;;;;;;;;17.71;53.83;101280.41;2284777;77;52619;-73
2023/04/28 00:20:11;;;;;;;;;;;;;;;17.70;53.88;101277.40;2276485;77;50658;-74
2023/04/28 00:23:12;;;;;;;;;;;;;;;17.70;53.87;101284.09;2276719;77;51527;-74
2023/04/28 00:26:14;;;;;;;;;;;;;;;17.68;53.89;101281.23;2297706;77;50218;-74
2023/04/28 00:29:16;;;;;;;;;;;;;;;17.70;53.87;101272.52;2289891;77;52512;-74
2023/04/28 00:32:17;;;;;;;;;;;;;;;17.69;53.87;101269.02;2276643;77;51534;-74
2023/04/28 00:35:19;;;;;;;;;;;;;;;17.71;53.86;101271.03;2297688;77;51611;-74
2023/04/28 00:38:24;;;;;;;;;;;;;;;17.74;53.80;101272.55;2283146;76;51536;-74
2023/04/28 00:41:24;;;;;;;;;;;;;;;17.72;53.79;101273.20;2341853;76;22488;-74
2023/04/28 00:44:26;;;;;;;;;;;;;;;17.70;53.82;101272.05;2329919;76;51500;-74
2023/04/28 00:47:27;;;;;;;;;;;;;;;17.71;53.83;101271.03;2299615;76;51406;-75
2023/04/28 00:50:29;;;;;;;;;;;;;;;17.69;53.84;101269.02;2341829;75;50402;-75
2023/04/28 00:53:30;;;;;;;;;;;;;;;17.68;53.86;101266.01;2341821;76;49608;-75
2023/04/28 00:56:32;;;;;;;;;;;;;;;17.69;53.83;101253.46;2337250;76;50297;-74
2023/04/28 00:59:34;;;;;;;;;;;;;;;17.70;53.82;101258.66;2337531;75;50302;-74
2023/04/28 01:02:35;;;;;;;;;;;;;;;17.72;53.74;101254.47;2337462;76;50673;-75
2023/04/28 01:05:37;;;;;;;;;;;;;;;17.71;53.75;101245.61;2337350;76;51602;-74
2023/04/28 01:08:39;;;;;;;;;;;;;;;17.72;53.74;101249.11;2337670;76;51481;-74
2023/04/28 01:11:40;;;;;;;;;;;;;;;17.72;53.74;101251.79;2341873;75;50645;-74
2023/04/28 01:14:42;;;;;;;;;;;;;;;17.70;53.72;101251.11;2329793;75;50483;-74
2023/04/28 01:17:43;;;;;;;;;;;;;;;17.70;53.74;101249.30;2320482;76;50364;-73
2023/04/28 01:20:45;;;;;;;;;;;;;;;17.70;53.72;101240.41;2298051;77;51654;-74
2023/04/28 01:23:47;;;;;;;;;;;;;;;17.71;53.68;101239.42;2264996;76;50863;-73
2023/04/28 01:26:48;;;;;;;;;;;;;;;17.70;53.66;101241.73;2298081;77;50392;-74
2023/04/28 01:29:50;;;;;;;;;;;;;;;17.69;53.64;101238.23;2265055;77;50117;-74
2023/04/28 01:32:51;;;;;;;;;;;;;;;17.70;53.60;101239.06;2298039;76;51523;-74
2023/04/28 01:35:54;;;;;;;;;;;;;;;17.69;53.64;101233.39;2265005;77;52449;-74
2023/04/28 01:38:56;;;;;;;;;;;;;;;17.67;53.61;101232.70;2297619;76;51565;-75
2023/04/28 01:41:58;;;;;;;;;;;;;;;17.67;53.61;101226.84;2240238;77;52384;-74
2023/04/28 01:44:59;;;;;;;;;;;;;;;17.65;53.62;101227.53;2312550;76;51539;-74
2023/04/28 01:48:01;;;;;;;;;;;;;;;17.66;53.63;101232.38;2303262;76;51592;-74
2023/04/28 01:51:02;;;;;;;;;;;;;;;17.67;53.64;101225.51;2297806;76;51437;-74
2023/04/28 01:54:04;;;;;;;;;;;;;;;17.68;53.59;101227.71;2251616;77;51088;-74
2023/04/28 01:57:06;;;;;;;;;;;;;;;17.67;53.58;101226.02;2297721;77;51411;-73
2023/04/28 02:00:08;;;;;;;;;;;;;;;17.67;53.56;101218.81;2298414;77;50563;-74
2023/04/28 02:03:09;;;;;;;;;;;;;;;17.68;53.49;101225.03;2298062;77;51574;-74
2023/04/28 02:06:11;;;;;;;;;;;;;;;17.68;53.50;101215.67;2251422;77;50972;-74
2023/04/28 02:09:13;;;;;;;;;;;;;;;17.65;53.50;101218.17;2276932;77;51537;-74
2023/04/28 02:12:16;;;;;;;;;;;;;;;17.67;53.48;101217.48;2297933;76;50733;-74
2023/04/28 02:15:18;;;;;;;;;;;;;;;17.66;53.52;101216.33;2288130;76;50572;-74
2023/04/28 02:18:19;;;;;;;;;;;;;;;17.66;53.51;101212.31;2259330;76;49731;-74
2023/04/28 02:21:21;;;;;;;;;;;;;;;17.66;53.50;101213.65;2276762;77;50800;-74
2023/04/28 02:24:23;;;;;;;;;;;;;;;17.63;53.49;101215.64;2276634;77;50652;-74
2023/04/28 02:27:24;;;;;;;;;;;;;;;17.65;53.46;101211.48;2298062;77;50745;-74
2023/04/28 02:30:26;;;;;;;;;;;;;;;17.65;53.44;101214.16;2276860;77;50124;-74
2023/04/28 02:33:28;;;;;;;;;;;;;;;17.64;53.43;101206.60;2277016;77;50648;-74
2023/04/28 02:36:30;;;;;;;;;;;;;;;17.64;53.48;101211.95;2276637;77;51516;-74
2023/04/28 02:39:32;;;;;;;;;;;;;;;17.63;53.43;101204.94;2277128;77;50313;-74
2023/04/28 02:42:33;;;;;;;;;;;;;;;17.63;53.46;101202.77;2298075;77;50305;-74
2023/04/28 02:45:35;;;;;;;;;;;;;;;17.62;53.41;101203.27;2283992;77;50161;-74
2023/04/28 02:48:37;;;;;;;;;;;;;;;17.63;53.39;101200.09;2326894;75;50667;-74
2023/04/28 02:51:39;;;;;;;;;;;;;;;17.63;53.37;101193.41;2341866;75;51520;-74
2023/04/28 02:54:40;;;;;;;;;;;;;;;17.61;53.41;101194.89;2341706;75;49595;-74
2023/04/28 02:57:42;;;;;;;;;;;;;;;17.63;53.38;101188.05;2341669;75;50404;-74
2023/04/28 03:00:43;;;;;;;;;;;;;;;17.62;53.40;101191.23;2341809;75;50407;-74
2023/04/28 03:03:45;;;;;;;;;;;;;;;17.60;53.37;101189.22;2337374;76;50811;-74
2023/04/28 03:06:47;;;;;;;;;;;;;;;17.62;53.33;101193.91;2341906;75;50487;-74
2023/04/28 03:09:48;;;;;;;;;;;;;;;17.61;53.33;101188.20;2337658;76;51487;-74
2023/04/28 03:12:50;;;;;;;;;;;;;;;17.61;53.31;101188.20;2341761;75;50720;-73
2023/04/28 03:15:51;;;;;;;;;;;;;;;17.61;53.35;101188.70;2324175;76;51467;-74
2023/04/28 03:18:53;;;;;;;;;;;;;;;17.61;53.31;101189.54;2330185;76;51527;-74
2023/04/28 03:21:55;;;;;;;;;;;;;;;17.60;53.28;101183.03;2337521;75;50750;-74
2023/04/28 03:24:56;;;;;;;;;;;;;;;17.60;53.34;101182.52;2341841;75;50336;-74
2023/04/28 03:27:58;;;;;;;;;;;;;;;17.58;53.31;101177.83;2342259;75;50654;-74
2023/04/28 03:31:00;;;;;;;;;;;;;;;17.60;53.27;101172.33;2341911;75;52555;-76
2023/04/28 03:34:02;;;;;;;;;;;;;;;17.57;53.33;101176.17;2334958;75;50494;-74
2023/04/28 03:37:03;;;;;;;;;;;;;;;17.59;53.33;101174.65;2291108;76;50506;-74
2023/04/28 03:40:05;;;;;;;;;;;;;;;17.58;53.27;101168.97;2337613;76;50272;-74
2023/04/28 03:43:07;;;;;;;;;;;;;;;17.58;53.30;101168.97;2322441;75;51536;-74
2023/04/28 03:46:09;;;;;;;;;;;;;;;17.58;53.27;101167.12;2301168;76;51460;-74
2023/04/28 03:49:10;;;;;;;;;;;;;;;17.57;53.27;101168.14;2335547;76;50790;-75
2023/04/28 03:52:12;;;;;;;;;;;;;;;17.59;53.21;101158.59;2335311;76;50388;-74
2023/04/28 03:55:13;;;;;;;;;;;;;;;17.60;53.16;101170.99;2267527;76;51246;-74
2023/04/28 03:58:15;;;;;;;;;;;;;;;17.58;53.20;101164.45;2296525;76;50509;-74
2023/04/28 04:01:17;;;;;;;;;;;;;;;17.58;53.19;101155.59;2338876;76;50834;-74
2023/04/28 04:04:18;;;;;;;;;;;;;;;17.59;53.16;101158.09;2337783;76;51445;-75
2023/04/28 04:07:21;;;;;;;;;;;;;;;17.57;53.21;101156.09;2315414;76;51406;-74
2023/04/28 04:10:22;;;;;;;;;;;;;;;17.58;53.15;101152.92;2340112;76;50787;-74
2023/04/28 04:13:24;;;;;;;;;;;;;;;17.56;53.18;101150.90;2338856;76;50769;-74
2023/04/28 04:16:26;;;;;;;;;;;;;;;17.57;53.16;101154.76;2330246;75;50722;-74
2023/04/28 04:19:27;;;;;;;;;;;;;;;17.58;53.13;101151.07;2300397;76;51178;-75
2023/04/28 04:22:29;;;;;;;;;;;;;;;17.57;53.09;101150.75;2339109;75;50362;-74
2023/04/28 04:25:31;;;;;;;;;;;;;;;17.59;53.08;101148.72;2338045;76;50683;-75
2023/04/28 04:28:33;;;;;;;;;;;;;;;17.59;53.12;101146.05;2343229;75;50751;-75
2023/04/28 04:31:34;;;;;;;;;;;;;;;17.58;53.10;101149.73;2342262;75;51309;-75
2023/04/28 04:34:36;;;;;;;;;;;;;;;17.57;53.11;101148.07;2342221;75;50270;-73
2023/04/28 04:37:37;;;;;;;;;;;;;;;17.58;53.12;101138.20;2337696;76;50466;-74
2023/04/28 04:40:39;;;;;;;;;;;;;;;17.57;53.12;101135.17;2337664;75;50329;-74
2023/04/28 04:43:41;;;;;;;;;;;;;;;17.58;53.10;101139.03;2342023;76;51713;-73
2023/04/28 04:46:42;;;;;;;;;;;;;;;17.55;53.08;101132.67;2328238;76;51591;-75
2023/04/28 04:49:44;;;;;;;;;;;;;;;17.55;53.14;101131.34;2307421;76;51564;-74
2023/04/28 04:52:45;;;;;;;;;;;;;;;17.53;53.10;101129.83;2298247;77;51462;-75
2023/04/28 04:55:47;;;;;;;;;;;;;;;17.54;53.15;101124.80;2276582;77;51152;-75
2023/04/28 04:58:50;;;;;;;;;;;;;;;17.55;53.19;101125.98;2277094;77;50687;-74
2023/04/28 05:01:52;;;;;;;;;;;;;;;17.55;53.14;101125.98;2298469;77;50799;-74
2023/04/28 05:04:54;;;;;;;;;;;;;;;17.56;53.05;101128.98;2276957;76;50775;-75
2023/04/28 05:07:55;;;;;;;;;;;;;;;17.56;53.11;101122.80;2276715;77;51330;-75
2023/04/28 05:10:57;;;;;;;;;;;;;;;17.57;53.04;101119.98;2298249;77;51524;-74
2023/04/28 05:13:58;;;;;;;;;;;;;;;17.60;53.05;101124.16;2276817;77;50504;-73
2023/04/28 05:17:00;;;;;;;;;;;;;;;17.66;52.92;101121.31;2284138;76;50434;-74
2023/04/28 05:20:02;;;;;;;;;;;;;;;17.73;52.72;101119.66;2295614;76;51025;-74
2023/04/28 05:23:04;;;;;;;;;;;;;;;17.77;52.50;101108.94;2335497;76;50747;-73
2023/04/28 05:26:05;;;;;;;;;;;;;;;17.87;52.30;101110.16;2335187;76;50675;-74
2023/04/28 05:29:07;;;;;;;;;;;;;;;17.92;52.18;101111.32;2335659;76;50441;-74
2023/04/28 05:32:09;;;;;;;;;;;;;;;18.01;51.99;101104.97;2335530;76;50821;-74
2023/04/28 05:35:10;;;;;;;;;;;;;;;18.16;51.77;101109.16;2301396;76;51579;-74
2023/04/28 05:38:12;;;;;;;;;;;;;;;18.26;51.55;101102.25;2301354;76;50181;-73
2023/04/28 05:41:13;;;;;;;;;;;;;;;18.30;51.50;101102.27;2335512;76;50761;-75
2023/04/28 05:44:15;;;;;;;;;;;;;;;18.32;51.45;101094.06;2300623;76;52835;-74
2023/04/28 05:47:17;;;;;;;;;;;;;;;18.25;51.41;101099.25;2326826;76;51637;-74
2023/04/28 05:50:18;;;;;;;;;;;;;;;18.26;51.53;101092.88;2326206;75;51613;-74
2023/04/28 05:53:20;;;;;;;;;;;;;;;18.26;51.58;101097.76;2341610;75;50752;-75
2023/04/28 05:56:21;;;;;;;;;;;;;;;18.26;51.57;101084.84;2314517;76;52616;-74
2023/04/28 05:59:23;;;;;;;;;;;;;;;18.25;51.59;101081.84;2341588;75;51357;-75
2023/04/28 06:02:25;;;;;;;;;;;;;;;18.27;51.57;101078.50;2337170;75;50267;-74
2023/04/28 06:05:26;;;;;;;;;;;;;;;18.32;51.49;101081.50;2336936;76;50311;-73
2023/04/28 06:08:28;;;;;;;;;;;;;;;18.35;51.47;101081.66;2341512;75;51005;-74
2023/04/28 06:11:30;;;;;;;;;;;;;;;18.44;51.26;101086.81;2336920;75;50783;-73
2023/04/28 06:14:32;;;;;;;;;;;;;;;18.49;51.18;101072.91;2341282;75;51612;-74
2023/04/28 06:17:33;;;;;;;;;;;;;;;18.48;51.13;101068.05;2314141;75;51514;-74
2023/04/28 06:20:35;;;;;;;;;;;;;;;18.50;51.12;101075.42;2310745;75;51716;-74
2023/04/28 06:23:39;;;;;;;;;;;;;;;18.50;51.12;101068.72;2276752;77;51447;-75
2023/04/28 06:26:40;;;;;;;;;;;;;;;18.43;51.33;101067.73;2297941;76;22428;-73
2023/04/28 06:29:41;;;;;;;;;;;;;;;18.40;51.37;101067.25;2276804;77;50140;-75
2023/04/28 06:32:43;;;;;;;;;;;;;;;18.35;51.42;101058.89;2240362;77;49692;-75
2023/04/28 06:35:44;;;;;;;;;;;;;;;18.31;51.38;101055.70;2297889;77;50846;-75
2023/04/28 06:38:46;;;;;;;;;;;;;;;18.26;51.52;101050.88;2298137;76;50382;-75
2023/04/28 06:41:48;;;;;;;;;;;;;;;18.26;51.52;101052.70;2298089;77;50409;-74
2023/04/28 06:44:49;;;;;;;;;;;;;;;18.23;51.51;101054.39;2240292;76;50084;-74
2023/04/28 06:47:51;;;;;;;;;;;;;;;18.26;51.41;101052.70;2290409;76;50441;-73
2023/04/28 06:50:52;;;;;;;;;;;;;;;18.24;51.44;101050.72;2330407;76;50275;-74
2023/04/28 06:53:54;;;;;;;;;;;;;;;18.24;51.38;101045.36;2339052;76;50284;-74
2023/04/28 06:56:56;;;;;;;;;;;;;;;18.21;51.49;101036.30;2303160;76;51185;-74
2023/04/28 06:59:57;;;;;;;;;;;;;;;18.25;51.40;101040.33;2337307;75;50687;-74
2023/04/28 07:02:59;;;;;;;;;;;;;;;18.23;51.41;101031.62;2337371;76;50669;-74
2023/04/28 07:06:02;;;;;;;;;;;;;;;18.24;51.43;101027.44;2336737;76;50701;-73
2023/04/28 07:09:04;;;;;;;;;;;;;;;18.31;51.26;101023.55;2314281;76;52492;-73
2023/04/28 07:12:05;;;;;;;;;;;;;;;18.36;51.33;101030.58;2336468;75;51425;-73
2023/04/28 07:15:07;;;;;;;;;;;;;;;18.41;51.31;101026.87;2340662;75;50680;-74
2023/04/28 07:18:09;;;;;;;;;;;;;;;18.42;51.29;101022.34;2317642;76;51504;-74
2023/04/28 07:21:10;;;;;;;;;;;;;;;18.41;51.31;101022.02;2296984;77;50669;-73
2023/04/28 07:24:12;;;;;;;;;;;;;;;18.44;51.22;101017.66;2275459;77;52477;-73
2023/04/28 07:27:14;;;;;;;;;;;;;;;18.44;51.22;101008.27;2297002;77;51471;-74
2023/04/28 07:30:15;;;;;;;;;;;;;;;18.44;51.22;101015.80;2275740;77;53542;-73
2023/04/28 07:33:17;;;;;;;;;;;;;;;18.46;51.10;101005.75;2250665;77;52421;-73
2023/04/28 07:36:18;;;;;;;;;;;;;;;18.47;51.05;100996.72;2275484;77;51821;-74
2023/04/28 07:39:20;;;;;;;;;;;;;;;18.46;51.12;100993.70;2296919;77;51480;-72
2023/04/28 07:42:22;;;;;;;;;;;;;;;18.48;51.06;100994.88;2296918;76;51553;-73
2023/04/28 07:45:23;;;;;;;;;;;;;;;18.45;51.06;100989.36;2275380;76;51023;-73
2023/04/28 07:48:26;;;;;;;;;;;;;;;18.46;50.97;100987.00;2286011;76;51447;-73
2023/04/28 07:51:27;;;;;;;;;;;;;;;18.44;50.91;100983.65;2275837;77;50745;-74
2023/04/28 07:54:29;;;;;;;;;;;;;;;18.44;50.82;100976.13;2275732;77;51481;-73
2023/04/28 07:57:30;;;;;;;;;;;;;;;18.42;50.76;100978.99;2250673;76;51723;-73
2023/04/28 08:00:32;;;;;;;;;;;;;;;18.41;50.89;100973.28;2297171;77;51472;-73
2023/04/28 08:03:34;;;;;;;;;;;;;;;18.40;50.80;100976.16;2297142;77;51582;-73
2023/04/28 08:06:35;;;;;;;;;;;;;;;18.39;50.76;100976.64;2275671;77;51469;-73
2023/04/28 08:09:37;;;;;;;;;;;;;;;18.38;50.84;100973.64;2275774;77;51033;-73
2023/04/28 08:12:39;;;;;;;;;;;;;;;18.38;50.85;100977.66;2297044;77;51564;-72
2023/04/28 08:15:41;;;;;;;;;;;;;;;18.38;50.88;100970.96;2276015;77;50731;-73
2023/04/28 08:18:42;;;;;;;;;;;;;;;18.39;50.87;100982.50;2322535;76;51594;-72
2023/04/28 08:21:44;;;;;;;;;;;;;;;18.39;50.90;100979.31;2275908;77;51300;-73
2023/04/28 08:24:46;;;;;;;;;;;;;;;18.38;50.87;100970.96;2297033;77;50391;-72
2023/04/28 08:27:47;;;;;;;;;;;;;;;18.38;50.84;100970.13;2275724;77;50388;-73
2023/04/28 08:30:49;;;;;;;;;;;;;;;18.37;50.88;100961.27;2275853;77;50661;-73
2023/04/28 08:33:51;;;;;;;;;;;;;;;18.36;50.83;100963.59;2250546;77;49650;-73
2023/04/28 08:36:52;;;;;;;;;;;;;;;18.37;50.79;100955.91;2297074;76;50491;-74
2023/04/28 08:40:00;;;;;;;;;;;;;;;18.34;50.89;100951.38;2297062;76;50709;-73
2023/04/28 08:42:57;;;;;;;;;;;;;;;18.32;50.93;100950.23;2275562;77;23037;-73
2023/04/28 08:45:59;;;;;;;;;;;;;;;18.34;50.89;100954.06;2278905;76;52558;-73
2023/04/28 08:49:01;;;;;;;;;;;;;;;18.33;50.83;100941.18;2314889;75;51415;-73
2023/04/28 08:52:02;;;;;;;;;;;;;;;18.36;50.87;100942.16;2297000;76;51558;-72
2023/04/28 08:55:06;;;;;;;;;;;;;;;18.36;50.76;100934.64;2296889;77;50421;-73
2023/04/28 08:58:07;;;;;;;;;;;;;;;18.38;50.70;100933.97;2295692;77;50778;-73
2023/04/28 09:01:09;;;;;;;;;;;;;;;18.37;50.70;100930.45;2297040;77;50470;-73
2023/04/28 09:04:10;;;;;;;;;;;;;;;18.34;50.74;100925.45;2275580;77;50277;-73
2023/04/28 09:07:12;;;;;;;;;;;;;;;18.34;50.79;100921.44;2297072;77;50465;-73
2023/04/28 09:10:24;;;;;;;;;;;;;;;18.35;50.77;100923.09;2275583;77;52373;-72
2023/04/28 09:13:26;;;;;;;;;;;;;;;18.34;50.80;100919.23;2275981;77;50846;-72
2023/04/28 09:16:29;;;;;;;;;;;;;;;18.36;50.75;100917.22;2285502;76;50826;-74
2023/04/28 09:19:41;;;;;;;;;;;;;;;18.33;50.80;100907.69;2309869;75;52191;-73
2023/04/28 09:22:38;;;;;;;;;;;;;;;18.32;50.86;100908.72;2295334;77;22704;-74
2023/04/28 09:25:39;;;;;;;;;;;;;;;18.31;50.88;100897.65;2275614;76;51186;-72
2023/04/28 09:28:41;;;;;;;;;;;;;;;18.30;50.92;100895.99;2296952;77;50303;-72
2023/04/28 09:31:43;;;;;;;;;;;;;;;18.27;50.93;100896.35;2297060;77;50300;-74
2023/04/28 09:34:45;;;;;;;;;;;;;;;18.26;50.95;100892.84;2250657;77;50297;-74
2023/04/28 09:37:46;;;;;;;;;;;;;;;18.23;51.06;100887.81;2296997;77;50729;-72
2023/04/28 09:40:55;;;;;;;;;;;;;;;18.22;51.05;100893.36;2297004;77;50474;-73
2023/04/28 09:43:57;;;;;;;;;;;;;;;18.19;51.15;100883.83;2296941;76;50304;-74
2023/04/28 09:47:00;;;;;;;;;;;;;;;18.18;51.24;100876.78;2279513;76;50334;-73
2023/04/28 09:50:02;;;;;;;;;;;;;;;18.16;51.22;100878.83;2303142;75;51723;-73
2023/04/28 09:53:04;;;;;;;;;;;;;;;18.16;51.37;100873.47;2297026;77;51627;-74
2023/04/28 09:56:05;;;;;;;;;;;;;;;18.16;51.27;100865.92;2296766;77;50678;-73
2023/04/28 09:59:07;;;;;;;;;;;;;;;18.14;51.37;100862.61;2275432;77;50081;-73
2023/04/28 10:02:09;;;;;;;;;;;;;;;18.14;51.32;100866.11;2275690;77;51454;-74
2023/04/28 10:05:11;;;;;;;;;;;;;;;18.12;51.41;100864.62;2296780;77;50765;-73
2023/04/28 10:08:13;;;;;;;;;;;;;;;18.12;51.49;100862.77;2296973;76;50380;-74
2023/04/28 10:11:15;;;;;;;;;;;;;;;18.12;51.52;100868.13;2296932;76;50428;-73
2023/04/28 10:14:16;;;;;;;;;;;;;;;18.14;51.45;100855.91;2275631;77;51464;-73
2023/04/28 10:17:18;;;;;;;;;;;;;;;18.13;51.52;100851.55;2310005;76;50402;-73
2023/04/28 10:20:21;;;;;;;;;;;;;;;18.15;51.38;100853.04;2275099;77;51556;-75
2023/04/28 10:38:07;;;;;;;;;;;;;;;18.13;51.49;100835.48;2315527;75;23422;-74
2023/04/28 10:41:08;;;;;;;;;;;;;;;18.13;51.58;100830.13;2340671;75;51066;-74
2023/04/28 10:44:30;;;;;;;;;;;;;;;18.12;51.53;100821.27;2340588;75;50439;-74
2023/04/28 10:47:33;;;;;;;;;;;;;;;18.11;51.56;100814.25;2329051;76;51544;-74
2023/04/28 10:50:36;;;;;;;;;;;;;;;18.11;51.51;100810.23;2333619;76;51587;-73
2023/04/28 10:53:51;;;;;;;;;;;;;;;18.12;51.57;100803.03;2299744;76;50153;-74
2023/04/28 10:57:08;;;;;;;;;;;;;;;18.13;51.59;100797.98;2331973;76;22306;-74
2023/04/28 11:00:29;;;;;;;;;;;;;;;18.13;51.64;100800.66;2334158;76;51481;-73
2023/04/28 11:03:45;;;;;;;;;;;;;;;18.11;51.64;100797.32;2334324;76;51626;-74
2023/04/28 11:06:47;;;;;;;;;;;;;;;18.14;51.57;100786.28;2300456;76;52589;-73
2023/04/28 11:09:49;;;;;;;;;;;;;;;18.12;51.65;100790.98;2334207;76;51438;-73
2023/04/28 11:13:09;;;;;;;;;;;;;;;18.11;51.61;100788.81;2300151;76;50312;-74
2023/04/28 11:16:10;;;;;;;;;;;;;;;18.13;51.61;100789.95;2323072;76;50500;-73
2023/04/28 11:19:12;;;;;;;;;;;;;;;18.12;51.66;100780.27;2275591;77;49668;-73
2023/04/28 11:22:14;;;;;;;;;;;;;;;18.13;51.58;100779.23;2297043;77;50340;-72
2023/04/28 11:25:16;;;;;;;;;;;;;;;18.10;51.63;100786.30;2275540;77;51508;-72
2023/04/28 11:28:17;;;;;;;;;;;;;;;18.11;51.67;100783.94;2275591;77;50810;-73
2023/04/28 11:31:24;;;;;;;;;;;;;;;18.12;51.63;100780.27;2275518;76;52703;-73
2023/04/28 11:34:22;;;;;;;;;;;;;;;18.11;51.69;100779.92;2274593;77;22373;-73
2023/04/28 11:37:24;;;;;;;;;;;;;;;18.11;51.71;100775.42;2297078;77;51533;-73
2023/04/28 11:40:25;;;;;;;;;;;;;;;18.09;51.83;100779.28;2297340;77;50772;-72
2023/04/28 11:43:30;;;;;;;;;;;;;;;18.12;51.77;100772.23;2275593;77;51712;-72
2023/04/28 11:46:32;;;;;;;;;;;;;;;18.10;51.79;100774.25;2287385;76;51852;-72
2023/04/28 11:49:43;;;;;;;;;;;;;;;18.09;51.77;100775.27;2334273;76;51554;-75
2023/04/28 11:52:48;;;;;;;;;;;;;;;18.09;51.72;100767.23;2334269;76;50696;-73
2023/04/28 11:55:50;;;;;;;;;;;;;;;18.08;51.86;100766.89;2299746;76;51067;-73
2023/04/28 11:59:02;;;;;;;;;;;;;;;18.10;51.82;100763.53;2300125;76;51505;-73
2023/04/28 12:02:05;;;;;;;;;;;;;;;18.10;51.83;100763.02;2334219;76;52036;-73
2023/04/28 12:05:07;;;;;;;;;;;;;;;18.08;51.84;100758.34;2300017;76;49969;-74
2023/04/28 12:08:09;;;;;;;;;;;;;;;18.13;51.76;100755.97;2299915;76;51670;-74
2023/04/28 12:11:14;;;;;;;;;;;;;;;18.12;51.78;100754.83;2334272;76;50065;-73
2023/04/28 12:14:15;;;;;;;;;;;;;;;18.13;51.74;100747.11;2300933;76;50296;-72
2023/04/28 12:17:26;;;;;;;;;;;;;;;18.13;51.73;100744.42;2310298;76;50332;-73
2023/04/28 12:20:37;;;;;;;;;;;;;;;18.13;51.74;100747.94;2250753;77;50384;-73
2023/04/28 12:23:42;;;;;;;;;;;;;;;18.12;51.71;100744.11;2275814;76;50250;-73
2023/04/28 12:26:42;;;;;;;;;;;;;;;18.13;51.71;100744.42;2297119;77;22314;-74
2023/04/28 12:29:45;;;;;;;;;;;;;;;18.14;51.74;100732.72;2275844;77;50593;-73
2023/04/28 12:32:47;;;;;;;;;;;;;;;18.15;51.75;100727.69;2239826;77;51101;-73
2023/04/28 12:35:48;;;;;;;;;;;;;;;18.17;51.61;100728.34;2289226;76;51547;-73
2023/04/28 12:38:50;;;;;;;;;;;;;;;18.13;51.71;100729.19;2328603;76;51555;-73
2023/04/28 12:41:53;;;;;;;;;;;;;;;18.14;51.74;100724.69;2341021;75;50638;-72
2023/04/28 12:44:55;;;;;;;;;;;;;;;18.13;51.75;100721.66;2340717;75;52187;-73
2023/04/28 12:47:57;;;;;;;;;;;;;;;18.12;51.79;100721.35;2340925;75;50450;-73
2023/04/28 12:50:58;;;;;;;;;;;;;;;18.10;51.86;100709.98;2336530;76;50637;-73
2023/04/28 12:54:00;;;;;;;;;;;;;;;18.09;51.88;100702.97;2336382;76;51261;-73
2023/04/28 12:57:02;;;;;;;;;;;;;;;18.10;51.90;100707.30;2340910;75;49579;-73
2023/04/28 13:00:05;;;;;;;;;;;;;;;18.09;51.89;100708.33;2336631;76;51722;-74
2023/04/28 13:03:07;;;;;;;;;;;;;;;18.09;51.93;100705.65;2336464;76;51647;-73
2023/04/28 13:06:09;;;;;;;;;;;;;;;18.10;51.96;100696.08;2330444;76;50728;-74
2023/04/28 13:09:11;;;;;;;;;;;;;;;18.11;51.92;100691.55;2300202;76;51582;-74
2023/04/28 13:12:13;;;;;;;;;;;;;;;18.08;51.99;100689.23;2263879;77;49984;-74
2023/04/28 13:15:15;;;;;;;;;;;;;;;18.09;51.99;100698.95;2263814;76;51571;-73
2023/04/28 13:18:17;;;;;;;;;;;;;;;18.08;52.02;100689.23;2297028;77;50720;-73
2023/04/28 13:21:19;;;;;;;;;;;;;;;18.11;51.95;100683.52;2263695;76;49659;-73
2023/04/28 13:24:20;;;;;;;;;;;;;;;18.11;51.95;100683.52;2263692;77;50837;-73
2023/04/28 13:27:22;;;;;;;;;;;;;;;18.10;51.98;100680.52;2264117;77;51465;-74
2023/04/28 13:30:23;;;;;;;;;;;;;;;18.08;52.03;100678.52;2296985;76;50230;-74
2023/04/28 13:33:30;;;;;;;;;;;;;;;18.09;52.02;100678.88;2264297;77;51255;-75
2023/04/28 13:36:34;;;;;;;;;;;;;;;18.06;52.07;100676.88;2284347;76;22349;-73
2023/04/28 13:39:35;;;;;;;;;;;;;;;18.07;52.07;100677.70;2340819;75;50530;-74
2023/04/28 13:42:37;;;;;;;;;;;;;;;18.09;52.06;100665.48;2336559;76;50445;-74
2023/04/28 13:45:39;;;;;;;;;;;;;;;18.06;52.10;100672.86;2340661;75;49606;-74
2023/04/28 13:48:40;;;;;;;;;;;;;;;18.04;52.15;100672.70;2336284;76;51585;-74
2023/04/28 13:51:44;;;;;;;;;;;;;;;18.05;52.16;100674.36;2336392;76;50302;-74
2023/04/28 13:54:45;;;;;;;;;;;;;;;18.05;52.17;100677.03;2336459;75;24838;-73
2023/04/28 13:57:47;;;;;;;;;;;;;;;18.02;52.20;100666.18;2340925;75;51348;-73
2023/04/28 14:00:48;;;;;;;;;;;;;;;18.02;52.24;100668.03;2336615;76;50823;-73
2023/04/28 14:03:50;;;;;;;;;;;;;;;18.02;52.25;100658.14;2336267;76;51451;-74
2023/04/28 14:06:52;;;;;;;;;;;;;;;18.01;52.24;100661.84;2324214;76;50397;-73
2023/04/28 14:09:53;;;;;;;;;;;;;;;18.01;52.27;100655.16;2296978;76;51571;-73
2023/04/28 14:12:55;;;;;;;;;;;;;;;18.01;52.21;100650.31;2297031;77;51560;-73
2023/04/28 14:15:57;;;;;;;;;;;;;;;18.02;52.22;100647.44;2296816;76;51421;-73
2023/04/28 14:18:58;;;;;;;;;;;;;;;18.01;52.31;100645.78;2297009;76;51443;-73
2023/04/28 14:22:00;;;;;;;;;;;;;;;18.01;52.29;100642.28;2275733;77;51844;-74
2023/04/28 14:25:02;;;;;;;;;;;;;;;18.00;52.34;100641.94;2296884;77;52421;-72
2023/04/28 14:28:04;;;;;;;;;;;;;;;18.01;52.35;100646.30;2275753;76;51421;-74
2023/04/28 14:31:07;;;;;;;;;;;;;;;18.00;52.36;100645.44;2297139;77;51528;-76
2023/04/28 14:34:09;;;;;;;;;;;;;;;18.00;52.34;100636.06;2298815;76;50399;-75
2023/04/28 14:37:10;;;;;;;;;;;;;;;17.99;52.38;100633.59;2325912;75;50636;-74
2023/04/28 14:40:12;;;;;;;;;;;;;;;17.98;52.35;100630.56;2297012;77;51627;-74
2023/04/28 14:43:14;;;;;;;;;;;;;;;17.98;52.35;100630.09;2275766;77;49442;-76
2023/04/28 14:46:18;;;;;;;;;;;;;;;17.98;52.40;100627.89;2275549;77;51347;-76
2023/04/28 14:49:18;;;;;;;;;;;;;;;17.97;52.42;100627.06;2297195;76;22393;-75
2023/04/28 14:52:21;;;;;;;;;;;;;;;17.96;52.37;100625.41;2297022;77;51556;-74
2023/04/28 14:55:22;;;;;;;;;;;;;;;17.98;52.39;100611.34;2296796;76;50611;-74
2023/04/28 14:58:24;;;;;;;;;;;;;;;17.96;52.42;100621.39;2250717;77;49657;-75
2023/04/28 15:01:26;;;;;;;;;;;;;;;17.94;52.46;100616.72;2275846;77;50631;-75
2023/04/28 15:04:29;;;;;;;;;;;;;;;17.95;52.42;100613.53;2303030;76;51474;-74
2023/04/28 15:07:31;;;;;;;;;;;;;;;17.94;52.48;100615.38;2321361;76;51550;-75
2023/04/28 15:10:34;;;;;;;;;;;;;;;17.95;52.48;100602.31;2275714;77;51737;-76
2023/04/28 15:13:37;;;;;;;;;;;;;;;17.94;52.44;100600.66;2296785;77;51526;-73
2023/04/28 15:16:38;;;;;;;;;;;;;;;17.95;52.48;100596.95;2275612;77;50802;-74
2023/04/28 15:19:40;;;;;;;;;;;;;;;17.94;52.46;100602.51;2297024;77;50670;-74
2023/04/28 15:22:43;;;;;;;;;;;;;;;17.93;52.52;100594.13;2275509;77;52611;-75
2023/04/28 15:25:45;;;;;;;;;;;;;;;17.95;52.53;100593.45;2296796;77;50501;-75
2023/04/28 15:28:47;;;;;;;;;;;;;;;17.95;52.48;100597.47;2296953;77;51633;-75
2023/04/28 15:31:49;;;;;;;;;;;;;;;17.93;52.46;100594.99;2297147;76;51476;-75
2023/04/28 15:34:51;;;;;;;;;;;;;;;17.93;52.49;100592.31;2286573;76;52632;-76
2023/04/28 15:37:54;;;;;;;;;;;;;;;17.93;52.50;100584.28;2297779;75;50424;-76
2023/04/28 15:40:56;;;;;;;;;;;;;;;17.94;52.52;100585.94;2297053;77;51523;-75
2023/04/28 15:43:59;;;;;;;;;;;;;;;17.93;52.50;100588.78;2275743;77;51446;-75
2023/04/28 15:47:00;;;;;;;;;;;;;;;17.92;52.52;100578.58;2239837;77;49707;-76
2023/04/28 15:50:02;;;;;;;;;;;;;;;17.92;52.55;100574.56;2297004;76;50464;-73